createdAt,value
2022-08-05T00:00:48.428Z,26.90
2022-08-05T00:01:52.394Z,27.00
2022-08-05T00:02:55.136Z,27.00
2022-08-05T00:03:57.682Z,27.00
2022-08-05T00:04:59.974Z,27.00
2022-08-05T00:06:27.813Z,27.00
2022-08-05T00:07:59.732Z,27.00
2022-08-05T00:08:53.173Z,27.00
2022-08-05T00:09:55.392Z,27.00
2022-08-05T00:11:00.820Z,27.00
2022-08-05T00:12:03.755Z,27.00
2022-08-05T00:13:07.004Z,27.00
2022-08-05T00:14:20.883Z,27.00
2022-08-05T00:15:54.896Z,27.00
2022-08-05T00:16:52.960Z,26.90
2022-08-05T00:17:56.032Z,26.90
2022-08-05T00:18:58.268Z,26.90
2022-08-05T00:20:02.752Z,27.00
2022-08-05T00:21:06.919Z,27.00
2022-08-05T00:22:11.406Z,27.00
2022-08-05T00:23:13.896Z,27.00
2022-08-05T00:24:24.119Z,27.00
2022-08-05T00:25:27.255Z,27.00
2022-08-05T00:26:51.923Z,27.00
2022-08-05T00:27:55.309Z,27.00
2022-08-05T00:28:57.635Z,27.10
2022-08-05T00:30:00.493Z,27.00
2022-08-05T00:31:07.493Z,27.10
2022-08-05T00:32:15.368Z,27.10
2022-08-05T00:34:53.818Z,27.10
2022-08-05T00:34:55.423Z,27.10
2022-08-05T00:36:15.897Z,27.10
2022-08-05T00:37:25.610Z,27.20
2022-08-05T00:38:28.839Z,27.20
2022-08-05T00:39:36.947Z,27.20
2022-08-05T00:40:53.404Z,27.20
2022-08-05T00:41:56.000Z,27.20
2022-08-05T00:42:59.230Z,27.30
2022-08-05T00:44:02.102Z,27.30
2022-08-05T00:45:05.519Z,27.30
2022-08-05T00:46:10.849Z,27.30
2022-08-05T00:47:16.371Z,27.30
2022-08-05T00:48:27.415Z,27.30
2022-08-05T00:49:51.280Z,27.30
2022-08-05T00:50:54.192Z,27.30
2022-08-05T00:51:56.412Z,27.30
2022-08-05T00:52:59.615Z,27.30
2022-08-05T00:54:03.074Z,27.30
2022-08-05T00:55:05.692Z,27.40
2022-08-05T00:56:08.190Z,27.30
2022-08-05T00:57:10.462Z,27.30
2022-08-05T00:58:13.319Z,27.40
2022-08-05T00:59:15.572Z,27.40
2022-08-05T01:00:20.030Z,27.40
2022-08-05T01:01:42.117Z,27.40
2022-08-05T01:02:45.271Z,27.40
2022-08-05T01:03:50.023Z,27.40
2022-08-05T01:04:52.461Z,27.40
2022-08-05T01:05:55.051Z,27.40
2022-08-05T01:06:57.580Z,27.40
2022-08-05T01:08:42.369Z,27.50
2022-08-05T01:09:23.445Z,27.50
2022-08-05T01:10:28.749Z,27.50
2022-08-05T01:11:37.167Z,27.50
2022-08-05T01:12:41.579Z,27.50
2022-08-05T01:14:11.894Z,27.50
2022-08-05T01:15:35.708Z,27.50
2022-08-05T01:16:48.622Z,27.50
2022-08-05T01:17:53.549Z,27.50
2022-08-05T01:19:00.786Z,27.60
2022-08-05T01:20:10.196Z,27.60
2022-08-05T01:21:38.472Z,27.60
2022-08-05T01:22:47.801Z,27.60
2022-08-05T01:23:54.826Z,27.60
2022-08-05T01:25:02.972Z,27.60
2022-08-05T01:26:12.865Z,27.50
2022-08-05T01:27:19.378Z,27.60
2022-08-05T01:28:24.638Z,27.60
2022-08-05T01:29:34.908Z,27.60
2022-08-05T01:30:39.758Z,27.60
2022-08-05T01:31:54.307Z,27.60
2022-08-05T01:32:58.016Z,27.60
2022-08-05T01:34:02.893Z,27.60
2022-08-05T01:35:10.754Z,27.60
2022-08-05T01:36:16.045Z,27.60
2022-08-05T01:37:29.903Z,27.60
2022-08-05T01:38:36.653Z,27.60
2022-08-05T01:39:47.582Z,27.60
2022-08-05T01:40:50.739Z,27.60
2022-08-05T01:41:54.349Z,27.60
2022-08-05T01:42:59.029Z,27.60
2022-08-05T01:44:02.343Z,27.60
2022-08-05T01:45:08.230Z,27.60
2022-08-05T01:46:16.280Z,27.60
2022-08-05T01:47:20.885Z,27.60
2022-08-05T01:48:25.042Z,27.60
2022-08-05T01:50:00.421Z,27.70
2022-08-05T01:50:51.505Z,27.60
2022-08-05T01:51:56.578Z,27.60
2022-08-05T01:53:02.561Z,27.60
2022-08-05T01:54:07.563Z,27.70
2022-08-05T01:55:13.345Z,27.70
2022-08-05T01:58:12.868Z,27.70
2022-08-05T01:58:12.975Z,27.70
2022-08-05T01:59:04.460Z,27.70
2022-08-05T02:00:12.022Z,27.70
2022-08-05T02:01:14.844Z,27.70
2022-08-05T02:02:28.662Z,27.80
2022-08-05T02:03:39.008Z,27.80
2022-08-05T02:04:42.830Z,27.70
2022-08-05T02:05:49.167Z,27.60
2022-08-05T02:06:56.128Z,27.60
2022-08-05T02:08:01.337Z,27.60
2022-08-05T02:09:05.666Z,27.60
2022-08-05T02:10:08.813Z,27.70
2022-08-05T02:11:12.850Z,27.70
2022-08-05T02:12:23.218Z,27.70
2022-08-05T02:13:36.430Z,27.70
2022-08-05T02:14:53.922Z,27.70
2022-08-05T02:16:18.692Z,27.70
2022-08-05T02:18:28.403Z,27.80
2022-08-05T02:18:57.838Z,27.70
2022-08-05T02:20:02.223Z,27.70
2022-08-05T02:21:15.281Z,27.70
2022-08-05T02:22:26.805Z,27.70
2022-08-05T02:23:33.710Z,27.70
2022-08-05T02:24:39.203Z,27.70
2022-08-05T02:25:49.607Z,27.70
2022-08-05T02:26:56.376Z,27.60
2022-08-05T02:28:00.485Z,27.60
2022-08-05T02:29:04.044Z,27.60
2022-08-05T02:30:08.929Z,27.50
2022-08-05T02:31:15.989Z,27.50
2022-08-05T02:32:24.042Z,27.60
2022-08-05T02:33:38.215Z,27.60
2022-08-05T02:34:41.967Z,27.60
2022-08-05T02:35:55.929Z,27.60
2022-08-05T02:37:04.335Z,27.60
2022-08-05T02:38:09.203Z,27.60
2022-08-05T02:39:12.890Z,27.60
2022-08-05T02:40:16.890Z,27.60
2022-08-05T02:41:19.714Z,27.60
2022-08-05T02:42:27.569Z,27.60
2022-08-05T02:43:34.556Z,27.60
2022-08-05T02:44:56.944Z,27.70
2022-08-05T02:46:01.008Z,27.70
2022-08-05T02:47:05.164Z,27.70
2022-08-05T02:48:12.894Z,27.70
2022-08-05T02:49:19.350Z,27.70
2022-08-05T02:50:24.608Z,27.80
2022-08-05T02:51:28.515Z,27.70
2022-08-05T02:52:49.443Z,27.70
2022-08-05T02:53:54.900Z,27.70
2022-08-05T02:54:57.677Z,27.70
2022-08-05T02:56:02.319Z,27.70
2022-08-05T02:57:10.338Z,27.70
2022-08-05T02:58:34.415Z,27.70
2022-08-05T02:59:50.355Z,27.70
2022-08-05T03:00:55.129Z,27.70
2022-08-05T03:02:00.592Z,27.70
2022-08-05T03:03:10.168Z,27.70
2022-08-05T03:04:15.687Z,27.70
2022-08-05T03:05:21.688Z,27.70
2022-08-05T03:06:55.218Z,27.70
2022-08-05T03:08:08.901Z,27.70
2022-08-05T03:09:15.760Z,27.60
2022-08-05T03:10:24.697Z,27.60
2022-08-05T03:11:54.769Z,27.60
2022-08-05T03:12:51.932Z,27.50
2022-08-05T03:14:02.792Z,27.50
2022-08-05T03:15:06.986Z,27.50
2022-08-05T03:16:11.474Z,27.50
2022-08-05T03:17:18.132Z,27.40
2022-08-05T03:18:24.682Z,27.40
2022-08-05T03:19:34.231Z,27.40
2022-08-05T03:20:38.571Z,27.40
2022-08-05T03:21:50.666Z,27.40
2022-08-05T03:22:53.226Z,27.40
2022-08-05T03:24:00.557Z,27.40
2022-08-05T03:25:31.995Z,27.40
2022-08-05T03:26:31.596Z,27.40
2022-08-05T03:27:39.372Z,27.40
2022-08-05T03:28:57.285Z,27.40
2022-08-05T03:30:07.278Z,27.40
2022-08-05T03:31:25.851Z,27.40
2022-08-05T03:32:34.452Z,27.40
2022-08-05T03:33:51.481Z,27.40
2022-08-05T03:34:55.465Z,27.40
2022-08-05T03:35:58.753Z,27.40
2022-08-05T03:37:01.517Z,27.40
2022-08-05T03:38:04.279Z,27.40
2022-08-05T03:39:07.600Z,27.40
2022-08-05T03:40:12.007Z,27.40
2022-08-05T03:41:15.762Z,27.40
2022-08-05T03:42:18.134Z,27.40
2022-08-05T03:44:09.702Z,27.40
2022-08-05T03:44:42.789Z,27.40
2022-08-05T03:45:58.216Z,27.30
2022-08-05T03:47:01.183Z,27.30
2022-08-05T03:48:05.987Z,27.30
2022-08-05T03:49:10.324Z,27.30
2022-08-05T03:50:13.058Z,27.30
2022-08-05T03:52:38.777Z,27.20
2022-08-05T03:55:34.229Z,27.20
2022-08-05T03:55:49.977Z,27.20
2022-08-05T03:56:30.425Z,27.20
2022-08-05T03:57:41.865Z,27.30
2022-08-05T03:58:46.333Z,27.30
2022-08-05T03:59:56.973Z,27.30
2022-08-05T04:01:01.654Z,27.30
2022-08-05T04:02:09.250Z,27.30
2022-08-05T04:03:28.449Z,27.30
2022-08-05T04:04:32.424Z,27.30
2022-08-05T04:05:35.003Z,27.30
2022-08-05T04:06:37.515Z,27.30
2022-08-05T04:07:58.161Z,27.30
2022-08-05T04:09:02.105Z,27.30
2022-08-05T04:10:04.950Z,27.30
2022-08-05T04:11:08.704Z,27.30
2022-08-05T04:12:23.634Z,27.30
2022-08-05T04:13:51.228Z,27.30
2022-08-05T04:14:50.556Z,27.30
2022-08-05T04:16:04.817Z,27.30
2022-08-05T04:17:08.524Z,27.30
2022-08-05T04:18:22.379Z,27.30
2022-08-05T04:19:25.017Z,27.40
2022-08-05T04:20:27.438Z,27.30
2022-08-05T04:22:05.253Z,27.40
2022-08-05T04:22:52.441Z,27.40
2022-08-05T04:23:57.101Z,27.30
2022-08-05T04:25:08.958Z,27.30
2022-08-05T04:26:13.749Z,27.30
2022-08-05T04:27:16.293Z,27.30
2022-08-05T04:28:28.470Z,27.30
2022-08-05T04:29:33.678Z,27.30
2022-08-05T04:30:36.713Z,27.30
2022-08-05T04:31:39.517Z,27.20
2022-08-05T04:32:42.212Z,27.20
2022-08-05T04:34:18.048Z,27.20
2022-08-05T04:35:07.429Z,27.20
2022-08-05T04:36:44.947Z,27.20
2022-08-05T04:38:01.169Z,27.20
2022-08-05T04:39:04.909Z,27.30
2022-08-05T04:40:08.559Z,27.30
2022-08-05T04:41:11.081Z,27.30
2022-08-05T04:42:13.411Z,27.30
2022-08-05T04:43:16.443Z,27.30
2022-08-05T04:44:28.979Z,27.30
2022-08-05T04:45:48.648Z,27.30
2022-08-05T04:46:55.433Z,27.30
2022-08-05T04:48:16.358Z,27.30
2022-08-05T04:49:38.498Z,27.30
2022-08-05T04:51:01.939Z,27.30
2022-08-05T04:52:07.768Z,27.30
2022-08-05T04:53:10.554Z,27.20
2022-08-05T04:54:14.880Z,27.20
2022-08-05T04:55:17.373Z,27.30
2022-08-05T04:56:39.672Z,27.30
2022-08-05T04:57:47.476Z,27.30
2022-08-05T04:58:50.395Z,27.30
2022-08-05T04:59:53.184Z,27.30
2022-08-05T05:00:55.890Z,27.30
2022-08-05T05:02:35.198Z,27.30
2022-08-05T05:03:20.903Z,27.30
2022-08-05T05:04:23.243Z,27.30
2022-08-05T05:05:28.891Z,27.30
2022-08-05T05:06:39.890Z,27.30
2022-08-05T05:07:52.925Z,27.30
2022-08-05T05:08:59.153Z,27.30
2022-08-05T05:10:06.359Z,27.30
2022-08-05T05:11:08.978Z,27.30
2022-08-05T05:12:11.574Z,27.30
2022-08-05T05:13:15.170Z,27.40
2022-08-05T05:14:17.682Z,27.40
2022-08-05T05:15:57.634Z,27.40
2022-08-05T05:16:52.926Z,27.40
2022-08-05T05:17:58.060Z,27.40
2022-08-05T05:19:18.075Z,27.40
2022-08-05T05:20:21.783Z,27.40
2022-08-05T05:21:30.653Z,27.40
2022-08-05T05:22:35.931Z,27.40
2022-08-05T05:24:02.818Z,27.40
2022-08-05T05:25:16.535Z,27.40
2022-08-05T05:26:19.954Z,27.40
2022-08-05T05:27:41.361Z,27.40
2022-08-05T05:28:48.335Z,27.50
2022-08-05T05:30:04.236Z,27.50
2022-08-05T05:31:08.797Z,27.50
2022-08-05T05:32:12.560Z,27.50
2022-08-05T05:33:17.185Z,27.50
2022-08-05T05:34:24.180Z,27.50
2022-08-05T05:35:31.598Z,27.50
2022-08-05T05:36:40.601Z,27.50
2022-08-05T05:37:59.771Z,27.50
2022-08-05T05:39:04.344Z,27.60
2022-08-05T05:40:07.355Z,27.60
2022-08-05T05:41:10.130Z,27.60
2022-08-05T05:42:14.753Z,27.60
2022-08-05T05:43:28.128Z,27.60
2022-08-05T05:44:43.098Z,27.60
2022-08-05T05:45:48.572Z,27.60
2022-08-05T05:46:51.166Z,27.50
2022-08-05T05:48:05.553Z,27.60
2022-08-05T05:49:22.607Z,27.60
2022-08-05T05:50:25.957Z,27.50
2022-08-05T05:51:28.389Z,27.60
2022-08-05T05:52:34.750Z,27.60
2022-08-05T05:53:54.132Z,27.60
2022-08-05T05:55:01.746Z,27.70
2022-08-05T05:56:09.453Z,27.70
2022-08-05T05:57:13.915Z,27.70
2022-08-05T05:58:21.795Z,27.70
2022-08-05T05:59:40.274Z,27.70
2022-08-05T06:00:45.945Z,27.80
2022-08-05T06:01:57.362Z,27.80
2022-08-05T06:03:01.711Z,27.80
2022-08-05T06:04:04.464Z,27.80
2022-08-05T06:05:10.378Z,27.80
2022-08-05T06:06:19.093Z,27.80
2022-08-05T06:07:41.143Z,27.80
2022-08-05T06:08:44.458Z,27.80
2022-08-05T06:10:04.379Z,27.80
2022-08-05T06:11:09.299Z,27.80
2022-08-05T06:12:15.758Z,27.80
2022-08-05T06:13:18.184Z,27.80
2022-08-05T06:14:20.672Z,27.80
2022-08-05T06:15:24.041Z,27.80
2022-08-05T06:16:30.168Z,27.80
2022-08-05T06:17:53.606Z,27.80
2022-08-05T06:18:57.213Z,27.80
2022-08-05T06:20:04.150Z,27.80
2022-08-05T06:21:07.896Z,27.80
2022-08-05T06:22:25.990Z,27.90
2022-08-05T06:23:43.534Z,27.90
2022-08-05T06:24:48.171Z,27.90
2022-08-05T06:26:13.802Z,27.90
2022-08-05T06:28:09.052Z,27.90
2022-08-05T06:28:36.856Z,27.90
2022-08-05T06:29:48.852Z,27.90
2022-08-05T06:30:54.479Z,27.90
2022-08-05T06:31:57.698Z,27.90
2022-08-05T06:33:02.187Z,27.90
2022-08-05T06:34:06.934Z,27.90
2022-08-05T06:35:21.727Z,27.90
2022-08-05T06:36:53.511Z,27.90
2022-08-05T06:37:57.450Z,27.90
2022-08-05T06:39:01.404Z,27.90
2022-08-05T06:40:05.969Z,27.80
2022-08-05T06:41:08.435Z,27.80
2022-08-05T06:42:15.999Z,27.90
2022-08-05T06:43:57.868Z,27.80
2022-08-05T06:44:40.647Z,27.80
2022-08-05T06:46:04.147Z,27.90
2022-08-05T06:47:06.915Z,27.90
2022-08-05T06:48:52.498Z,27.90
2022-08-05T06:50:00.591Z,27.80
2022-08-05T06:50:57.695Z,27.90
2022-08-05T06:52:00.046Z,27.80
2022-08-05T06:53:11.185Z,27.90
2022-08-05T06:54:21.932Z,27.90
2022-08-05T06:55:28.265Z,27.90
2022-08-05T06:56:38.681Z,27.80
2022-08-05T06:58:03.714Z,27.80
2022-08-05T06:59:09.720Z,27.80
2022-08-05T07:00:14.330Z,27.90
2022-08-05T07:01:32.398Z,27.90
2022-08-05T07:02:41.557Z,27.90
2022-08-05T07:03:43.882Z,27.90
2022-08-05T07:04:46.521Z,27.90
2022-08-05T07:05:48.881Z,27.90
2022-08-05T07:06:52.165Z,27.90
2022-08-05T07:07:54.433Z,27.90
2022-08-05T07:08:59.020Z,27.90
2022-08-05T07:10:03.438Z,28.00
2022-08-05T07:11:06.333Z,28.00
2022-08-05T07:12:36.730Z,28.00
2022-08-05T07:13:59.833Z,28.00
2022-08-05T07:15:34.447Z,28.00
2022-08-05T07:17:58.981Z,28.00
2022-08-05T07:18:14.621Z,28.10
2022-08-05T07:20:10.629Z,28.10
2022-08-05T07:20:45.386Z,28.10
2022-08-05T07:22:00.138Z,28.10
2022-08-05T07:23:04.681Z,28.10
2022-08-05T07:24:09.194Z,28.10
2022-08-05T07:25:53.877Z,28.10
2022-08-05T07:26:36.742Z,28.10
2022-08-05T07:27:59.752Z,28.10
2022-08-05T07:29:02.495Z,28.10
2022-08-05T07:30:25.374Z,28.20
2022-08-05T07:31:40.787Z,28.10
2022-08-05T07:32:51.052Z,28.20
2022-08-05T07:33:55.884Z,28.10
2022-08-05T07:36:05.227Z,28.20
2022-08-05T07:36:26.302Z,28.20
2022-08-05T07:37:37.598Z,28.20
2022-08-05T07:38:43.482Z,28.20
2022-08-05T07:40:26.556Z,28.20
2022-08-05T07:41:35.297Z,28.20
2022-08-05T07:42:34.226Z,28.20
2022-08-05T07:43:39.916Z,28.20
2022-08-05T07:44:46.311Z,28.20
2022-08-05T07:45:56.423Z,28.20
2022-08-05T07:47:00.538Z,28.20
2022-08-05T07:48:03.104Z,28.20
2022-08-05T07:49:07.989Z,28.20
2022-08-05T07:50:10.595Z,28.20
2022-08-05T07:51:36.054Z,28.20
2022-08-05T07:52:42.109Z,28.20
2022-08-05T07:53:50.281Z,28.20
2022-08-05T07:54:54.161Z,28.20
2022-08-05T07:56:06.479Z,28.20
2022-08-05T07:57:41.515Z,28.20
2022-08-05T07:58:54.888Z,28.20
2022-08-05T08:00:02.553Z,28.20
2022-08-05T08:01:14.606Z,28.20
2022-08-05T08:02:18.316Z,28.20
2022-08-05T08:03:21.581Z,28.30
2022-08-05T08:04:37.624Z,28.20
2022-08-05T08:05:47.558Z,28.20
2022-08-05T08:06:52.775Z,28.30
2022-08-05T08:07:59.839Z,28.30
2022-08-05T08:09:03.679Z,28.30
2022-08-05T08:10:08.354Z,28.30
2022-08-05T08:11:10.820Z,28.30
2022-08-05T08:12:36.825Z,28.30
2022-08-05T08:13:49.549Z,28.30
2022-08-05T08:15:04.306Z,28.30
2022-08-05T08:16:43.046Z,28.30
2022-08-05T08:17:30.826Z,28.30
2022-08-05T08:18:33.707Z,28.30
2022-08-05T08:20:21.242Z,28.30
2022-08-05T08:21:04.062Z,28.30
2022-08-05T08:22:15.919Z,28.30
2022-08-05T08:24:01.136Z,28.30
2022-08-05T08:24:51.481Z,28.30
2022-08-05T08:25:59.691Z,28.30
2022-08-05T08:27:07.124Z,28.30
2022-08-05T08:28:18.514Z,28.30
2022-08-05T08:30:04.689Z,28.30
2022-08-05T08:30:55.159Z,28.30
2022-08-05T08:31:57.867Z,28.30
2022-08-05T08:33:04.540Z,28.30
2022-08-05T08:34:10.564Z,28.30
2022-08-05T08:35:13.365Z,28.30
2022-08-05T08:36:37.536Z,28.30
2022-08-05T08:37:38.604Z,28.30
2022-08-05T08:38:53.484Z,28.30
2022-08-05T08:39:56.730Z,28.30
2022-08-05T08:40:59.937Z,28.30
2022-08-05T08:42:02.842Z,28.30
2022-08-05T08:45:16.491Z,28.30
2022-08-05T08:45:20.946Z,28.30
2022-08-05T08:45:53.965Z,28.30
2022-08-05T08:46:56.435Z,28.30
2022-08-05T08:48:07.686Z,28.40
2022-08-05T08:50:14.138Z,28.40
2022-08-05T08:51:22.594Z,28.40
2022-08-05T08:52:14.414Z,28.40
2022-08-05T08:53:18.558Z,28.40
2022-08-05T08:54:21.570Z,28.40
2022-08-05T08:56:01.710Z,28.40
2022-08-05T08:56:52.472Z,28.40
2022-08-05T08:58:01.608Z,28.40
2022-08-05T08:59:14.662Z,28.40
2022-08-05T09:00:21.687Z,28.40
2022-08-05T09:01:24.381Z,28.40
2022-08-05T09:02:27.483Z,28.40
2022-08-05T09:03:40.339Z,28.40
2022-08-05T09:04:57.948Z,28.40
2022-08-05T09:06:11.570Z,28.40
2022-08-05T09:07:19.370Z,28.40
2022-08-05T09:08:31.056Z,28.40
2022-08-05T09:09:38.091Z,28.40
2022-08-05T09:10:41.798Z,28.40
2022-08-05T09:11:50.956Z,28.40
2022-08-05T09:12:55.076Z,28.40
2022-08-05T09:14:10.372Z,28.40
2022-08-05T09:15:20.588Z,28.40
2022-08-05T09:16:26.942Z,28.40
2022-08-05T09:17:42.386Z,28.40
2022-08-05T09:18:48.639Z,28.40
2022-08-05T09:20:01.933Z,28.40
2022-08-05T09:21:11.482Z,28.40
2022-08-05T09:22:22.291Z,28.40
2022-08-05T09:23:37.424Z,28.40
2022-08-05T09:24:56.994Z,28.40
2022-08-05T09:26:20.507Z,28.40
2022-08-05T09:28:04.818Z,28.40
2022-08-05T09:30:10.665Z,28.50
2022-08-05T09:31:43.624Z,28.40
2022-08-05T09:32:51.879Z,28.40
2022-08-05T09:33:59.168Z,28.40
2022-08-05T09:35:08.961Z,28.40
2022-08-05T09:36:11.678Z,28.40
2022-08-05T09:38:12.854Z,28.40
2022-08-05T09:39:18.161Z,28.40
2022-08-05T09:40:32.110Z,28.40
2022-08-05T09:41:39.015Z,28.40
2022-08-05T09:42:41.380Z,28.40
2022-08-05T09:43:43.599Z,28.40
2022-08-05T09:44:56.813Z,28.40
2022-08-05T09:46:06.225Z,28.40
2022-08-05T09:47:13.963Z,28.50
2022-08-05T09:48:30.801Z,28.50
2022-08-05T09:49:54.651Z,28.40
2022-08-05T09:51:04.136Z,28.40
2022-08-05T09:52:17.425Z,28.40
2022-08-05T09:53:26.166Z,28.40
2022-08-05T09:54:51.355Z,28.40
2022-08-05T09:56:03.608Z,28.40
2022-08-05T09:57:20.581Z,28.50
2022-08-05T09:58:26.259Z,28.40
2022-08-05T09:59:34.998Z,28.50
2022-08-05T10:00:39.632Z,28.50
2022-08-05T10:01:45.803Z,28.40
2022-08-05T10:02:50.779Z,28.50
2022-08-05T10:04:04.623Z,28.50
2022-08-05T10:05:18.135Z,28.50
2022-08-05T10:06:23.223Z,28.50
2022-08-05T10:08:10.831Z,28.50
2022-08-05T10:09:28.413Z,28.40
2022-08-05T10:10:36.287Z,28.50
2022-08-05T10:11:39.739Z,28.40
2022-08-05T10:12:49.496Z,28.40
2022-08-05T10:13:54.641Z,28.50
2022-08-05T10:15:17.111Z,28.50
2022-08-05T10:16:28.601Z,28.40
2022-08-05T10:17:37.177Z,28.50
2022-08-05T10:18:42.803Z,28.40
2022-08-05T10:20:03.972Z,28.50
2022-08-05T10:21:15.782Z,28.50
2022-08-05T10:22:29.940Z,28.50
2022-08-05T10:23:59.987Z,28.40
2022-08-05T10:25:00.803Z,28.50
2022-08-05T10:26:05.421Z,28.50
2022-08-05T10:27:11.130Z,28.50
2022-08-05T10:28:19.124Z,28.50
2022-08-05T10:29:24.122Z,28.50
2022-08-05T10:32:50.604Z,28.50
2022-08-05T10:32:54.989Z,28.50
2022-08-05T10:33:31.243Z,28.50
2022-08-05T10:34:40.831Z,28.50
2022-08-05T10:35:44.125Z,28.50
2022-08-05T10:36:47.036Z,28.50
2022-08-05T10:37:49.619Z,28.50
2022-08-05T10:38:59.137Z,28.50
2022-08-05T10:40:18.210Z,28.50
2022-08-05T10:41:46.452Z,28.50
2022-08-05T10:42:52.366Z,28.50
2022-08-05T10:43:59.373Z,28.50
2022-08-05T10:45:20.992Z,28.50
2022-08-05T10:46:42.364Z,28.50
2022-08-05T10:47:56.089Z,28.50
2022-08-05T10:49:10.530Z,28.50
2022-08-05T10:50:31.569Z,28.50
2022-08-05T10:51:57.655Z,28.50
2022-08-05T10:53:02.823Z,28.50
2022-08-05T10:54:28.341Z,28.50
2022-08-05T10:55:30.416Z,28.60
2022-08-05T10:56:52.798Z,28.60
2022-08-05T10:58:09.408Z,28.50
2022-08-05T11:00:02.766Z,28.60
2022-08-05T11:00:45.605Z,28.60
2022-08-05T11:01:55.453Z,28.60
2022-08-05T11:03:24.981Z,28.60
2022-08-05T11:04:30.765Z,28.50
2022-08-05T11:05:34.074Z,28.60
2022-08-05T11:06:56.932Z,28.60
2022-08-05T11:08:03.343Z,28.60
2022-08-05T11:09:18.690Z,28.60
2022-08-05T11:10:37.250Z,28.60
2022-08-05T11:11:44.647Z,28.60
2022-08-05T11:12:55.921Z,28.60
2022-08-05T11:13:58.597Z,28.60
2022-08-05T11:15:20.027Z,28.60
2022-08-05T11:16:33.982Z,28.60
2022-08-05T11:18:00.417Z,28.60
2022-08-05T11:20:17.830Z,28.60
2022-08-05T11:20:50.918Z,28.50
2022-08-05T11:21:53.915Z,28.60
2022-08-05T11:23:05.832Z,28.50
2022-08-05T11:24:14.745Z,28.60
2022-08-05T11:26:04.656Z,28.60
2022-08-05T11:27:15.066Z,28.60
2022-08-05T11:28:17.475Z,28.60
2022-08-05T11:29:36.164Z,28.60
2022-08-05T11:30:58.459Z,28.60
2022-08-05T11:32:19.715Z,28.60
2022-08-05T11:33:43.774Z,28.60
2022-08-05T11:34:51.805Z,28.60
2022-08-05T11:36:08.546Z,28.60
2022-08-05T11:38:30.792Z,28.60
2022-08-05T11:38:46.054Z,28.60
2022-08-05T11:40:00.479Z,28.60
2022-08-05T11:41:34.526Z,28.60
2022-08-05T11:42:29.199Z,28.60
2022-08-05T11:44:04.349Z,28.60
2022-08-05T11:45:00.629Z,28.30
2022-08-05T11:46:16.195Z,28.00
2022-08-05T11:47:25.347Z,27.80
2022-08-05T11:48:49.007Z,27.60
2022-08-05T11:49:57.572Z,27.40
2022-08-05T11:51:01.325Z,27.40
2022-08-05T11:52:11.103Z,27.30
2022-08-05T11:53:13.912Z,27.20
2022-08-05T11:54:24.424Z,27.10
2022-08-05T11:55:36.774Z,26.90
2022-08-05T11:56:57.853Z,26.70
2022-08-05T11:58:09.999Z,26.70
2022-08-05T11:59:21.281Z,26.60
2022-08-05T12:00:30.661Z,26.50
2022-08-05T12:01:32.958Z,26.50
2022-08-05T12:02:36.100Z,26.60
2022-08-05T12:03:56.144Z,26.70
2022-08-05T12:04:59.974Z,26.90
2022-08-05T12:06:05.896Z,27.00
2022-08-05T12:07:13.937Z,27.10
2022-08-05T12:08:18.293Z,27.10
2022-08-05T12:09:23.739Z,27.30
2022-08-05T12:10:48.816Z,27.30
2022-08-05T12:11:51.352Z,27.40
2022-08-05T12:12:59.890Z,27.50
2022-08-05T12:14:04.511Z,27.60
2022-08-05T12:15:07.745Z,27.60
2022-08-05T12:16:17.481Z,27.70
2022-08-05T12:18:02.709Z,27.70
2022-08-05T12:18:49.061Z,27.80
2022-08-05T12:20:25.894Z,27.80
2022-08-05T12:21:23.572Z,27.90
2022-08-05T12:22:27.318Z,27.90
2022-08-05T12:23:29.730Z,28.00
2022-08-05T12:24:33.176Z,28.00
2022-08-05T12:25:56.438Z,28.10
2022-08-05T12:27:00.926Z,28.10
2022-08-05T12:28:15.091Z,28.10
2022-08-05T12:29:22.932Z,28.20
2022-08-05T12:30:29.029Z,28.20
2022-08-05T12:31:45.929Z,28.20
2022-08-05T12:32:53.493Z,28.20
2022-08-05T12:33:58.744Z,28.30
2022-08-05T12:35:04.049Z,28.30
2022-08-05T12:36:09.137Z,28.30
2022-08-05T12:37:17.600Z,28.30
2022-08-05T12:38:31.496Z,28.30
2022-08-05T12:39:38.449Z,28.30
2022-08-05T12:40:44.167Z,28.30
2022-08-05T12:41:46.591Z,28.30
2022-08-05T12:42:48.926Z,28.30
2022-08-05T12:43:53.252Z,28.30
2022-08-05T12:45:02.328Z,28.40
2022-08-05T12:46:04.853Z,28.40
2022-08-05T12:47:07.660Z,28.40
2022-08-05T12:48:27.697Z,28.40
2022-08-05T12:50:04.339Z,28.40
2022-08-05T12:51:21.671Z,28.40
2022-08-05T12:52:41.973Z,28.40
2022-08-05T12:53:47.496Z,28.40
2022-08-05T12:54:58.245Z,28.40
2022-08-05T12:56:02.359Z,28.50
2022-08-05T12:57:09.311Z,28.50
2022-08-05T12:58:50.016Z,28.50
2022-08-05T13:01:56.916Z,28.50
2022-08-05T13:02:00.419Z,28.50
2022-08-05T13:02:37.128Z,28.50
2022-08-05T13:03:45.467Z,28.50
2022-08-05T13:04:52.629Z,28.50
2022-08-05T13:05:58.204Z,28.50
2022-08-05T13:07:10.432Z,28.50
2022-08-05T13:08:18.913Z,28.50
2022-08-05T13:09:28.782Z,28.50
2022-08-05T13:10:31.690Z,28.50
2022-08-05T13:12:02.352Z,28.50
2022-08-05T13:12:59.899Z,28.50
2022-08-05T13:14:09.798Z,28.50
2022-08-05T13:15:24.469Z,28.50
2022-08-05T13:16:51.837Z,28.50
2022-08-05T13:17:55.301Z,28.50
2022-08-05T13:19:01.613Z,28.50
2022-08-05T13:20:08.613Z,28.50
2022-08-05T13:21:11.071Z,28.50
2022-08-05T13:22:14.716Z,28.50
2022-08-05T13:23:30.898Z,28.50
2022-08-05T13:24:51.147Z,28.50
2022-08-05T13:25:58.894Z,28.50
2022-08-05T13:27:03.787Z,28.50
2022-08-05T13:28:06.749Z,28.50
2022-08-05T13:29:09.040Z,28.50
2022-08-05T13:30:34.014Z,28.60
2022-08-05T13:32:04.350Z,28.60
2022-08-05T13:33:01.560Z,28.60
2022-08-05T13:34:23.989Z,28.60
2022-08-05T13:35:42.620Z,28.60
2022-08-05T13:36:45.832Z,28.60
2022-08-05T13:37:55.690Z,28.60
2022-08-05T13:38:58.118Z,28.60
2022-08-05T13:40:16.400Z,28.60
2022-08-05T13:41:23.922Z,28.60
2022-08-05T13:42:39.240Z,28.60
2022-08-05T13:43:54.778Z,28.60
2022-08-05T13:44:57.747Z,28.60
2022-08-05T13:46:01.304Z,28.60
2022-08-05T13:47:08.426Z,28.60
2022-08-05T13:48:57.769Z,28.60
2022-08-05T13:49:35.396Z,28.60
2022-08-05T13:50:37.799Z,28.60
2022-08-05T13:51:45.759Z,28.60
2022-08-05T13:52:49.856Z,28.60
2022-08-05T13:53:52.530Z,28.60
2022-08-05T13:55:01.218Z,28.60
2022-08-05T13:56:03.930Z,28.60
2022-08-05T13:57:20.940Z,28.60
2022-08-05T13:58:30.336Z,28.60
2022-08-05T13:59:33.396Z,28.60
2022-08-05T14:00:38.190Z,28.60
2022-08-05T14:01:46.660Z,28.60
2022-08-05T14:03:01.139Z,28.60
2022-08-05T14:04:22.243Z,28.60
2022-08-05T14:06:24.361Z,28.60
2022-08-05T14:06:58.686Z,28.60
2022-08-05T14:08:20.819Z,28.60
2022-08-05T14:09:29.671Z,28.60
2022-08-05T14:10:32.224Z,28.60
2022-08-05T14:11:34.576Z,28.60
2022-08-05T14:12:57.433Z,28.60
2022-08-05T14:13:59.890Z,28.60
2022-08-05T14:16:03.808Z,28.60
2022-08-05T14:16:24.706Z,28.70
2022-08-05T14:17:28.243Z,28.70
2022-08-05T14:18:30.791Z,28.70
2022-08-05T14:19:34.418Z,28.70
2022-08-05T14:20:56.611Z,28.70
2022-08-05T14:22:08.674Z,28.70
2022-08-05T14:23:12.270Z,28.70
2022-08-05T14:24:19.418Z,28.70
2022-08-05T14:25:22.657Z,28.70
2022-08-05T14:26:38.555Z,28.70
2022-08-05T14:27:47.501Z,28.70
2022-08-05T14:28:52.421Z,28.70
2022-08-05T14:29:55.109Z,28.70
2022-08-05T14:30:59.294Z,28.70
2022-08-05T14:32:13.130Z,28.70
2022-08-05T14:33:22.659Z,28.70
2022-08-05T14:34:25.706Z,28.70
2022-08-05T14:35:36.874Z,28.70
2022-08-05T14:36:51.043Z,28.70
2022-08-05T14:37:55.386Z,28.70
2022-08-05T14:38:58.070Z,28.70
2022-08-05T14:40:00.759Z,28.80
2022-08-05T14:41:06.613Z,28.80
2022-08-05T14:42:21.138Z,28.80
2022-08-05T14:43:57.619Z,28.80
2022-08-05T14:44:46.368Z,28.80
2022-08-05T14:45:48.578Z,28.70
2022-08-05T14:46:50.854Z,28.80
2022-08-05T14:48:05.572Z,28.80
2022-08-05T14:49:10.831Z,28.80
2022-08-05T14:50:18.322Z,28.80
2022-08-05T14:51:21.856Z,28.80
2022-08-05T14:52:50.402Z,28.80
2022-08-05T14:54:26.842Z,28.80
2022-08-05T14:55:09.178Z,28.80
2022-08-05T14:56:22.722Z,28.80
2022-08-05T14:57:25.193Z,28.80
2022-08-05T14:58:53.048Z,28.80
2022-08-05T14:59:55.603Z,28.80
2022-08-05T15:01:00.263Z,28.80
2022-08-05T15:02:14.915Z,28.80
2022-08-05T15:03:33.223Z,28.80
2022-08-05T15:04:36.690Z,28.80
2022-08-05T15:06:07.563Z,28.80
2022-08-05T15:07:01.305Z,28.80
2022-08-05T15:08:15.894Z,28.80